Time;durP1;ratioP1;P1;durP2;ratioP2;P2;SDS_P1;SDS_P2;PMS_P1;PMS_P2;Temp;Humidity;BMP_temperature;BMP_pressure;BME280_temperature;BME280_humidity;BME280_pressure;Samples;Min_cycle;Max_cycle;Signal;HPM_P1;HPM_P2
2024/03/25 00:01:47;;;;;;;10.20;5.13;;;5.10;99.90;;;;;;5070528;28;20041;-47
2024/03/25 00:04:13;;;;;;;8.68;4.75;;;5.10;99.90;;;;;;5071968;28;20051;-47
2024/03/25 00:06:39;;;;;;;8.23;5.15;;;5.10;99.90;;;;;;5071843;28;20364;-44
2024/03/25 00:09:07;;;;;;;10.23;5.10;;;5.10;99.90;;;;;;5068531;28;20044;-45
2024/03/25 00:11:33;;;;;;;12.70;5.25;;;5.10;99.90;;;;;;5069174;28;20051;-42
2024/03/25 00:13:59;;;;;;;10.35;5.35;;;5.10;99.90;;;;;;5051858;28;20206;-43
2024/03/25 00:16:25;;;;;;;8.73;4.85;;;5.20;99.90;;;;;;5070556;28;20365;-45
2024/03/25 00:18:51;;;;;;;10.75;5.40;;;5.10;99.90;;;;;;5067444;28;20048;-46
2024/03/25 00:21:17;;;;;;;10.20;5.45;;;5.10;99.90;;;;;;5069404;28;20053;-47
2024/03/25 00:23:43;;;;;;;7.03;4.95;;;5.10;99.90;;;;;;5068822;28;22769;-41
2024/03/25 00:26:09;;;;;;;10.07;5.00;;;5.10;99.90;;;;;;5066528;28;20683;-45
2024/03/25 00:28:35;;;;;;;8.25;4.95;;;5.20;99.90;;;;;;5069856;28;20649;-44
2024/03/25 00:31:01;;;;;;;8.55;5.13;;;5.20;99.90;;;;;;5067339;28;20055;-45
2024/03/25 00:33:27;;;;;;;9.13;5.30;;;5.20;99.90;;;;;;5070122;28;20040;-41
2024/03/25 00:35:53;;;;;;;10.85;5.43;;;5.30;99.90;;;;;;5067264;28;20413;-41
2024/03/25 00:38:19;;;;;;;11.32;5.32;;;5.30;99.90;;;;;;5068023;28;20049;-40
2024/03/25 00:40:45;;;;;;;10.90;5.05;;;5.30;99.90;;;;;;5067935;28;20558;-48
2024/03/25 00:43:12;;;;;;;14.18;6.20;;;5.30;99.90;;;;;;5066156;28;20093;-44
2024/03/25 00:45:38;;;;;;;10.13;4.95;;;5.20;99.90;;;;;;5067794;28;20043;-43
2024/03/25 00:48:04;;;;;;;7.75;4.90;;;5.20;99.90;;;;;;5067180;28;20052;-46
2024/03/25 00:50:30;;;;;;;10.85;5.43;;;5.20;99.90;;;;;;5069527;28;20044;-47
2024/03/25 00:52:56;;;;;;;12.82;5.00;;;5.20;99.90;;;;;;5067297;28;20093;-49
2024/03/25 00:55:22;;;;;;;8.88;5.10;;;5.20;99.90;;;;;;5068954;28;20466;-46
2024/03/25 00:57:48;;;;;;;8.43;5.05;;;5.20;99.90;;;;;;5064905;28;20045;-44
2024/03/25 01:00:15;;;;;;;10.85;5.00;;;5.30;99.90;;;;;;5069213;28;20089;-43
2024/03/25 01:02:42;;;;;;;7.63;5.50;;;5.30;99.90;;;;;;5068932;28;20181;-47
2024/03/25 01:05:08;;;;;;;11.32;5.63;;;5.30;99.90;;;;;;5064737;28;20071;-43
2024/03/25 01:07:35;;;;;;;9.25;5.55;;;5.30;99.90;;;;;;5049817;28;20043;-43
2024/03/25 01:10:01;;;;;;;9.32;4.85;;;5.30;99.90;;;;;;5066788;28;20060;-47
2024/03/25 01:12:26;;;;;;;8.95;5.88;;;5.30;99.90;;;;;;5068788;28;20052;-44
2024/03/25 01:14:53;;;;;;;11.63;5.05;;;5.30;99.90;;;;;;5068323;28;20504;-45
2024/03/25 01:17:19;;;;;;;9.52;5.43;;;5.30;99.90;;;;;;5066415;28;20048;-43
2024/03/25 01:19:45;;;;;;;12.43;5.53;;;5.30;99.90;;;;;;5067000;28;20055;-47
2024/03/25 01:22:11;;;;;;;9.98;5.38;;;5.30;99.90;;;;;;5078656;28;20053;-42
2024/03/25 01:24:37;;;;;;;6.93;4.88;;;5.30;99.90;;;;;;5071405;28;20052;-41
2024/03/25 01:27:03;;;;;;;9.95;5.07;;;5.30;99.90;;;;;;5071454;28;20329;-41
2024/03/25 01:29:29;;;;;;;8.35;5.18;;;5.30;99.90;;;;;;5076839;28;20052;-47
2024/03/25 01:31:57;;;;;;;10.15;5.97;;;5.30;99.90;;;;;;5071048;28;20162;-48
2024/03/25 01:34:23;;;;;;;8.20;5.18;;;5.30;99.90;;;;;;5074905;28;20043;-44
2024/03/25 01:36:49;;;;;;;10.48;4.97;;;5.40;99.90;;;;;;5078900;28;20036;-44
2024/03/25 01:39:15;;;;;;;7.97;5.05;;;5.30;99.90;;;;;;5068664;28;20052;-41
2024/03/25 01:41:41;;;;;;;8.07;4.95;;;5.40;99.90;;;;;;5073334;28;20543;-45
2024/03/25 01:44:07;;;;;;;9.40;5.47;;;5.40;99.90;;;;;;5070544;28;20056;-47
2024/03/25 01:46:33;;;;;;;9.52;5.57;;;5.30;99.90;;;;;;5074170;28;20415;-50
2024/03/25 01:48:59;;;;;;;9.65;4.88;;;5.30;99.90;;;;;;5070014;28;20094;-44
2024/03/25 01:51:25;;;;;;;8.35;4.95;;;5.40;99.90;;;;;;5075692;28;20420;-46
2024/03/25 01:53:54;;;;;;;9.80;5.80;;;5.30;99.90;;;;;;5075925;28;20055;-42
2024/03/25 01:56:23;;;;;;;8.70;4.85;;;5.40;99.90;;;;;;5070656;28;20048;-46
2024/03/25 01:58:49;;;;;;;7.72;4.75;;;5.30;99.90;;;;;;5071316;28;20063;-45
2024/03/25 02:01:16;;;;;;;9.45;5.45;;;5.30;99.90;;;;;;5073514;28;20044;-44
2024/03/25 02:03:45;;;;;;;8.40;5.18;;;5.30;99.90;;;;;;5070614;28;20082;-43
2024/03/25 02:06:17;;;;;;;10.27;5.22;;;5.40;99.90;;;;;;5070979;28;20040;-44
2024/03/25 02:08:43;;;;;;;;;;;5.40;99.90;;;;;;5071750;28;20036;-42
2024/03/25 02:11:11;;;;;;;8.50;5.10;;;5.40;99.90;;;;;;5070489;28;19932;-43
2024/03/25 02:13:39;;;;;;;10.25;5.18;;;5.40;99.90;;;;;;5076714;28;20527;-44
2024/03/25 02:16:05;;;;;;;9.63;6.05;;;5.40;99.90;;;;;;5076673;28;20497;-46
2024/03/25 02:18:31;;;;;;;11.30;5.38;;;5.30;99.90;;;;;;5073361;28;20048;-48
2024/03/25 02:20:58;;;;;;;10.13;4.95;;;5.30;99.90;;;;;;5075975;28;20036;-42
2024/03/25 02:23:25;;;;;;;11.45;5.05;;;5.30;99.90;;;;;;5073006;28;20358;-43
2024/03/25 02:25:55;;;;;;;8.82;5.28;;;5.40;99.90;;;;;;5073104;28;20452;-49
2024/03/25 02:28:21;;;;;;;11.85;5.18;;;5.40;99.90;;;;;;5076120;28;20113;-46
2024/03/25 02:30:47;;;;;;;8.35;5.20;;;5.40;99.90;;;;;;5072183;28;20048;-45
2024/03/25 02:33:14;;;;;;;11.63;4.93;;;5.40;99.90;;;;;;5074356;28;20090;-47
2024/03/25 02:35:41;;;;;;;8.57;4.95;;;5.40;99.90;;;;;;5075480;28;20503;-43
2024/03/25 02:38:08;;;;;;;10.35;5.60;;;5.50;99.90;;;;;;5072582;28;20242;-45
2024/03/25 02:40:35;;;;;;;7.38;4.85;;;5.40;99.90;;;;;;5075091;28;20058;-43
2024/03/25 02:43:01;;;;;;;8.20;5.15;;;5.40;99.90;;;;;;5072019;28;20044;-49
2024/03/25 02:45:27;;;;;;;8.63;5.00;;;5.40;99.90;;;;;;5069372;28;20033;-44
2024/03/25 02:47:53;;;;;;;10.80;4.85;;;5.40;99.90;;;;;;5071145;28;20047;-42
2024/03/25 02:50:19;;;;;;;10.35;4.88;;;5.40;99.90;;;;;;5074460;28;20520;-46
2024/03/25 02:52:45;;;;;;;9.48;5.10;;;5.40;99.90;;;;;;5073012;28;20440;-43
2024/03/25 02:55:11;;;;;;;8.15;5.53;;;5.40;99.90;;;;;;5075089;28;20040;-44
2024/03/25 02:57:37;;;;;;;14.02;5.97;;;5.40;99.90;;;;;;5070639;28;20081;-46
2024/03/25 03:00:04;;;;;;;10.27;5.10;;;5.40;99.90;;;;;;5073937;28;20048;-46
2024/03/25 03:02:30;;;;;;;10.63;5.88;;;5.30;99.90;;;;;;5075436;28;20054;-43
2024/03/25 03:04:56;;;;;;;8.38;5.25;;;5.30;99.90;;;;;;5071687;28;20348;-44
2024/03/25 03:07:22;;;;;;;10.57;5.95;;;5.30;99.90;;;;;;5073085;28;20055;-45
2024/03/25 03:09:48;;;;;;;9.13;5.85;;;5.30;99.90;;;;;;5067099;28;20378;-44
2024/03/25 03:12:14;;;;;;;8.80;5.20;;;5.30;99.90;;;;;;5071105;28;20053;-42
2024/03/25 03:14:40;;;;;;;12.52;6.53;;;5.30;99.90;;;;;;5071913;28;20048;-46
2024/03/25 03:17:06;;;;;;;10.32;5.47;;;5.20;99.90;;;;;;5068701;28;20080;-45
2024/03/25 03:19:32;;;;;;;10.27;5.85;;;5.30;99.90;;;;;;5072167;28;20097;-46
2024/03/25 03:21:58;;;;;;;10.18;5.63;;;5.30;99.90;;;;;;5069744;28;20052;-44
2024/03/25 03:24:24;;;;;;;10.80;5.53;;;5.30;99.90;;;;;;5069749;28;20050;-45
2024/03/25 03:26:50;;;;;;;7.88;5.65;;;5.20;99.90;;;;;;5071018;28;20464;-46
2024/03/25 03:29:16;;;;;;;11.20;5.93;;;5.20;99.90;;;;;;5071945;28;20044;-43
2024/03/25 03:31:43;;;;;;;8.77;6.10;;;5.10;99.90;;;;;;5069450;28;20048;-40
2024/03/25 03:34:10;;;;;;;12.20;6.47;;;5.10;99.90;;;;;;5070046;28;20066;-44
2024/03/25 03:36:36;;;;;;;14.68;5.60;;;5.10;99.90;;;;;;5066221;28;20051;-41
2024/03/25 03:39:03;;;;;;;9.77;6.13;;;5.00;99.90;;;;;;5068707;28;20040;-43
2024/03/25 03:41:29;;;;;;;9.82;6.20;;;5.00;99.90;;;;;;5071204;28;20090;-40
2024/03/25 03:43:55;;;;;;;10.70;6.70;;;5.00;99.90;;;;;;5063152;28;20044;-44
2024/03/25 03:46:21;;;;;;;12.15;7.63;;;5.00;99.90;;;;;;5070868;28;20057;-44
2024/03/25 03:48:47;;;;;;;12.68;6.53;;;4.90;99.90;;;;;;5064227;28;20036;-48
2024/03/25 03:51:13;;;;;;;12.38;6.70;;;4.90;99.90;;;;;;5069690;28;20051;-43
2024/03/25 03:53:40;;;;;;;10.85;6.85;;;4.90;99.90;;;;;;5068093;28;20044;-45
2024/03/25 03:56:06;;;;;;;11.98;7.38;;;4.80;99.90;;;;;;5068141;28;20041;-49
2024/03/25 03:58:32;;;;;;;10.60;6.57;;;4.80;99.90;;;;;;5067717;28;20056;-47
2024/03/25 04:00:59;;;;;;;10.23;6.80;;;4.80;99.90;;;;;;5066548;28;20056;-44
2024/03/25 04:03:25;;;;;;;12.18;7.00;;;4.70;99.90;;;;;;5069625;28;20049;-45
2024/03/25 04:05:51;;;;;;;15.48;7.53;;;4.70;99.90;;;;;;5066032;28;20036;-41
2024/03/25 04:08:17;;;;;;;14.10;7.88;;;4.60;99.90;;;;;;5049285;28;20510;-44
2024/03/25 04:10:45;;;;;;;13.52;7.82;;;4.60;99.90;;;;;;5063275;28;20048;-41
2024/03/25 04:13:11;;;;;;;12.55;7.43;;;4.60;99.90;;;;;;5061848;28;20448;-44
2024/03/25 04:15:41;;;;;;;11.98;7.63;;;4.50;99.90;;;;;;5069983;28;20049;-43
2024/03/25 04:18:08;;;;;;;12.90;7.45;;;4.50;99.90;;;;;;5073987;28;20319;-45
2024/03/25 04:20:41;;;;;;;10.73;7.15;;;4.50;99.90;;;;;;5070888;28;20036;-45
2024/03/25 04:23:07;;;;;;;11.80;7.50;;;4.50;99.90;;;;;;5046994;28;20539;-44
2024/03/25 04:25:37;;;;;;;13.30;7.95;;;4.40;99.90;;;;;;5070197;28;20036;-46
2024/03/25 04:28:04;;;;;;;12.10;7.75;;;4.50;99.90;;;;;;5068261;28;20048;-46
2024/03/25 04:30:30;;;;;;;11.45;7.28;;;4.50;99.90;;;;;;5067261;28;20585;-42
2024/03/25 04:32:56;;;;;;;10.13;7.22;;;4.40;99.90;;;;;;5067611;28;20050;-44
2024/03/25 04:35:22;;;;;;;13.55;7.88;;;4.40;99.90;;;;;;5068605;28;20049;-45
2024/03/25 04:37:48;;;;;;;14.60;8.00;;;4.40;99.90;;;;;;5064196;28;20044;-45
2024/03/25 04:40:14;;;;;;;14.23;8.43;;;4.40;99.90;;;;;;5066137;28;20505;-46
2024/03/25 04:42:41;;;;;;;12.40;8.02;;;4.40;99.90;;;;;;5068020;28;20177;-45
2024/03/25 04:45:07;;;;;;;11.57;8.32;;;4.40;99.90;;;;;;5069265;28;20064;-44
2024/03/25 04:47:33;;;;;;;14.00;7.53;;;4.40;99.90;;;;;;5076282;28;20036;-46
2024/03/25 04:49:59;;;;;;;14.23;7.40;;;4.50;99.90;;;;;;5071608;28;20059;-43
2024/03/25 04:52:25;;;;;;;15.38;7.93;;;4.50;99.90;;;;;;5067627;28;20105;-43
2024/03/25 04:54:51;;;;;;;15.07;7.75;;;4.50;99.90;;;;;;5068954;28;20048;-52
2024/03/25 04:57:17;;;;;;;12.02;7.70;;;4.50;99.90;;;;;;5073303;28;20051;-45
2024/03/25 04:59:44;;;;;;;15.30;7.82;;;4.50;99.90;;;;;;5078068;28;20050;-45
2024/03/25 05:02:10;;;;;;;12.63;7.75;;;4.50;99.90;;;;;;5078620;28;20056;-45
2024/03/25 05:04:36;;;;;;;13.43;7.75;;;4.50;99.90;;;;;;5074821;28;20047;-44
2024/03/25 05:07:02;;;;;;;9.85;7.57;;;4.50;99.90;;;;;;5079939;28;20041;-44
2024/03/25 05:09:28;;;;;;;13.95;7.78;;;4.50;99.90;;;;;;5080539;28;20094;-44
2024/03/25 05:11:54;;;;;;;15.35;8.13;;;4.50;99.90;;;;;;5077381;28;20435;-45
2024/03/25 05:14:20;;;;;;;10.35;7.35;;;4.50;99.90;;;;;;5081048;28;20063;-44
2024/03/25 05:16:46;;;;;;;15.23;7.65;;;4.50;99.90;;;;;;5077498;28;20044;-47
2024/03/25 05:19:12;;;;;;;12.35;8.50;;;4.60;99.90;;;;;;5076313;28;20641;-43
2024/03/25 05:21:38;;;;;;;13.00;7.78;;;4.50;99.90;;;;;;5074967;28;20033;-48
2024/03/25 05:24:04;;;;;;;12.30;8.25;;;4.50;99.90;;;;;;5073167;28;20052;-46
2024/03/25 05:26:30;;;;;;;14.50;7.10;;;4.50;99.90;;;;;;5074082;28;20093;-44
2024/03/25 05:28:57;;;;;;;14.40;7.93;;;4.40;99.90;;;;;;5075746;28;20134;-45
2024/03/25 05:31:23;;;;;;;17.13;7.60;;;4.40;99.90;;;;;;5073627;28;20055;-48
2024/03/25 05:33:50;;;;;;;14.35;8.13;;;4.40;99.90;;;;;;5075637;28;20044;-46
2024/03/25 05:36:16;;;;;;;14.25;7.90;;;4.30;99.90;;;;;;5077227;28;20424;-42
2024/03/25 05:38:42;;;;;;;9.50;7.22;;;4.30;99.90;;;;;;5074279;28;20052;-44
2024/03/25 05:41:09;;;;;;;12.35;7.75;;;4.30;99.90;;;;;;5076096;28;20056;-47
2024/03/25 05:43:37;;;;;;;13.23;7.72;;;4.30;99.90;;;;;;5071449;28;20045;-46
2024/03/25 05:46:03;;;;;;;11.93;6.85;;;4.30;99.90;;;;;;5079082;28;20040;-51
2024/03/25 05:48:30;;;;;;;11.43;7.18;;;4.30;99.90;;;;;;5079320;28;20051;-44
2024/03/25 05:51:01;;;;;;;15.15;7.20;;;4.40;99.90;;;;;;5079108;28;20048;-44
2024/03/25 05:53:28;;;;;;;14.50;7.93;;;4.40;99.90;;;;;;5072720;28;20049;-44
2024/03/25 05:55:55;;;;;;;14.63;7.72;;;4.40;99.90;;;;;;5073782;28;20183;-45
2024/03/25 05:58:21;;;;;;;14.57;7.35;;;4.40;99.90;;;;;;5074122;28;20102;-44
2024/03/25 06:00:48;;;;;;;13.70;8.13;;;4.40;99.90;;;;;;5074542;28;20041;-43
2024/03/25 06:03:15;;;;;;;14.73;7.75;;;4.40;99.90;;;;;;5074112;28;20048;-43
2024/03/25 06:05:41;;;;;;;14.85;8.50;;;4.40;99.90;;;;;;5074288;28;20044;-45
2024/03/25 06:08:07;;;;;;;13.13;8.20;;;4.30;99.90;;;;;;5073555;28;20132;-42
2024/03/25 06:10:37;;;;;;;12.88;7.82;;;4.30;99.90;;;;;;5073341;28;20032;-44
2024/03/25 06:13:03;;;;;;;11.13;7.00;;;4.30;99.90;;;;;;5067778;28;20540;-44
2024/03/25 06:15:29;;;;;;;17.60;8.18;;;4.40;99.90;;;;;;5071908;28;20551;-44
2024/03/25 06:17:55;;;;;;;13.02;8.27;;;4.40;99.90;;;;;;5069849;28;20069;-44
2024/03/25 06:20:21;;;;;;;12.30;7.57;;;4.30;99.90;;;;;;5072462;28;20053;-41
2024/03/25 06:22:47;;;;;;;14.63;8.10;;;4.30;99.90;;;;;;5072762;28;20541;-40
2024/03/25 06:25:13;;;;;;;17.20;8.73;;;4.20;99.90;;;;;;5072403;28;20429;-46
2024/03/25 06:27:40;;;;;;;15.52;8.90;;;4.30;99.90;;;;;;5071732;28;20123;-45
2024/03/25 06:35:35;;;;;;;14.30;8.52;;;4.50;99.90;;;;;;5071186;28;20365;-44
2024/03/25 06:38:01;;;;;;;14.88;8.00;;;4.50;99.90;;;;;;5070605;28;20444;-50
2024/03/25 06:40:27;;;;;;;12.88;7.45;;;4.70;99.90;;;;;;5071959;28;20061;-44
2024/03/25 06:42:53;;;;;;;12.93;7.07;;;4.80;99.90;;;;;;5068541;28;20036;-46
2024/03/25 06:45:19;;;;;;;11.88;7.53;;;4.90;99.90;;;;;;5069293;28;20090;-44
2024/03/25 06:47:45;;;;;;;15.45;7.07;;;5.10;99.90;;;;;;5068985;28;20242;-40
2024/03/25 06:50:14;;;;;;;13.23;7.18;;;5.10;99.90;;;;;;5072449;28;20484;-43
2024/03/25 06:52:39;;;;;;;12.35;6.72;;;5.10;99.90;;;;;;5069805;28;20048;-46
2024/03/25 06:55:06;;;;;;;13.23;6.95;;;5.10;99.90;;;;;;5071634;28;20586;-45
2024/03/25 06:57:32;;;;;;;13.88;7.32;;;5.20;99.90;;;;;;5067939;28;20048;-45
2024/03/25 06:59:58;;;;;;;11.70;6.60;;;5.20;99.90;;;;;;5065420;28;20069;-47
2024/03/25 07:02:24;;;;;;;12.63;6.20;;;5.40;99.90;;;;;;5070123;28;20117;-47
2024/03/25 07:04:50;;;;;;;12.48;6.05;;;5.60;99.90;;;;;;5067433;28;20340;-44
2024/03/25 07:07:18;;;;;;;9.70;5.60;;;5.70;99.90;;;;;;5070660;28;20037;-42
2024/03/25 07:09:44;;;;;;;10.55;6.00;;;5.80;99.90;;;;;;5071398;28;20111;-47
2024/03/25 07:12:10;;;;;;;11.15;5.47;;;5.80;99.90;;;;;;5067397;28;20063;-45
2024/03/25 07:14:35;;;;;;;10.57;5.47;;;5.90;99.90;;;;;;5066802;28;20082;-44
2024/03/25 07:17:01;;;;;;;11.90;5.20;;;5.70;99.90;;;;;;5067352;28;20048;-48
2024/03/25 07:19:27;;;;;;;11.00;5.00;;;5.70;99.90;;;;;;5075237;28;20060;-48
2024/03/25 07:21:53;;;;;;;7.70;4.97;;;5.80;99.90;;;;;;5064713;28;20040;-43
2024/03/25 07:24:19;;;;;;;8.65;5.05;;;5.80;99.90;;;;;;5072658;28;20086;-45
2024/03/25 07:26:46;;;;;;;8.77;5.90;;;5.90;99.90;;;;;;5074133;28;20044;-46
2024/03/25 07:29:12;;;;;;;8.05;5.00;;;5.80;99.90;;;;;;5074103;28;20097;-47
2024/03/25 07:31:38;;;;;;;8.75;4.47;;;5.90;99.90;;;;;;5069709;28;20052;-48
2024/03/25 07:34:04;;;;;;;11.13;4.85;;;5.90;99.90;;;;;;5073607;28;20049;-50
2024/03/25 07:36:33;;;;;;;8.80;4.88;;;6.10;99.90;;;;;;5073823;28;20044;-46
2024/03/25 07:38:59;;;;;;;9.40;4.40;;;6.10;99.90;;;;;;5063714;28;20047;-44
2024/03/25 07:41:25;;;;;;;11.48;5.28;;;6.30;99.90;;;;;;5056796;28;20115;-44
2024/03/25 07:43:51;;;;;;;9.52;4.50;;;6.40;99.90;;;;;;5066930;28;20195;-44
2024/03/25 07:46:17;;;;;;;6.88;4.10;;;6.30;99.90;;;;;;5071289;28;20044;-42
2024/03/25 07:48:43;;;;;;;11.77;4.38;;;6.20;99.90;;;;;;5068606;28;20044;-43
2024/03/25 07:51:10;;;;;;;7.20;4.13;;;6.10;99.90;;;;;;5085375;28;20053;-45
2024/03/25 07:53:36;;;;;;;9.63;4.53;;;6.10;99.90;;;;;;5068467;28;20520;-42
2024/03/25 07:56:04;;;;;;;12.13;5.25;;;6.10;99.90;;;;;;5068039;28;20052;-45
2024/03/25 07:58:30;;;;;;;7.13;4.22;;;6.10;99.90;;;;;;5066845;28;20604;-45
2024/03/25 08:00:56;;;;;;;7.63;4.15;;;6.20;99.90;;;;;;5068827;28;20530;-45
2024/03/25 08:03:25;;;;;;;8.75;4.25;;;6.10;99.90;;;;;;5072145;28;20337;-47
2024/03/25 08:05:50;;;;;;;7.15;3.88;;;6.20;99.90;;;;;;5066262;28;20044;-44
2024/03/25 08:08:16;;;;;;;9.45;3.80;;;6.30;99.90;;;;;;5067277;28;20293;-42
2024/03/25 08:10:42;;;;;;;7.20;4.13;;;6.50;99.90;;;;;;5053382;28;20052;-48
2024/03/25 08:13:08;;;;;;;9.57;4.18;;;6.70;99.90;;;;;;5068307;28;20510;-42
2024/03/25 08:15:34;;;;;;;6.03;3.85;;;7.00;99.90;;;;;;5069943;28;20128;-48
2024/03/25 08:18:00;;;;;;;6.97;3.95;;;7.30;99.90;;;;;;5067453;28;20124;-44
2024/03/25 08:20:26;;;;;;;8.40;4.28;;;7.20;99.90;;;;;;5072225;28;20131;-41
2024/03/25 08:22:52;;;;;;;7.95;4.00;;;7.40;99.90;;;;;;5068851;28;20689;-44
2024/03/25 08:25:18;;;;;;;6.65;3.90;;;7.40;99.90;;;;;;5072583;28;20528;-43
2024/03/25 08:27:44;;;;;;;7.63;4.00;;;7.50;99.90;;;;;;5068165;28;20032;-41
2024/03/25 08:30:10;;;;;;;7.72;4.50;;;7.50;99.90;;;;;;5068699;28;20086;-45
2024/03/25 08:32:36;;;;;;;5.95;4.15;;;7.50;99.90;;;;;;5067650;28;20039;-47
2024/03/25 08:35:02;;;;;;;8.73;4.30;;;7.60;99.90;;;;;;5071010;28;20052;-48
2024/03/25 08:37:28;;;;;;;9.05;3.95;;;7.40;99.90;;;;;;5065420;28;20143;-44
2024/03/25 08:39:54;;;;;;;6.95;4.35;;;7.30;99.90;;;;;;5066913;28;20049;-46
2024/03/25 08:42:21;;;;;;;8.55;4.38;;;7.40;99.90;;;;;;5063524;28;20036;-44
2024/03/25 08:44:47;;;;;;;11.00;4.63;;;7.40;99.90;;;;;;5068826;28;20047;-44
2024/03/25 08:47:13;;;;;;;9.50;4.15;;;7.60;99.90;;;;;;5069362;28;20056;-42
2024/03/25 08:49:39;;;;;;;7.15;4.47;;;7.80;99.90;;;;;;5070814;28;20024;-41
2024/03/25 08:52:05;;;;;;;8.35;4.47;;;7.90;99.90;;;;;;5068625;28;20075;-44
2024/03/25 08:54:31;;;;;;;7.18;3.75;;;8.00;99.90;;;;;;5062761;28;20528;-44
2024/03/25 08:56:57;;;;;;;9.65;4.20;;;7.90;99.90;;;;;;5065793;28;20036;-42
2024/03/25 08:59:23;;;;;;;7.07;4.00;;;7.90;99.90;;;;;;5070404;28;20170;-44
2024/03/25 09:01:49;;;;;;;10.85;4.63;;;8.20;99.90;;;;;;5067703;28;20101;-45
2024/03/25 09:04:15;;;;;;;5.55;4.07;;;8.30;99.90;;;;;;5060819;28;20765;-43
2024/03/25 09:06:41;;;;;;;6.78;4.55;;;8.40;99.90;;;;;;5069445;28;20097;-41
2024/03/25 09:11:52;;;;;;;7.60;5.47;;;8.10;99.90;;;;;;5067023;28;20041;-43
2024/03/25 09:14:18;;;;;;;7.65;5.20;;;7.90;99.90;;;;;;5067032;28;20044;-43
2024/03/25 09:16:44;;;;;;;10.75;5.38;;;7.70;99.90;;;;;;5067501;28;20044;-42
2024/03/25 09:19:09;;;;;;;9.05;4.60;;;7.50;99.90;;;;;;5067961;28;20040;-45
2024/03/25 09:21:35;;;;;;;7.93;4.53;;;7.70;99.90;;;;;;5063302;28;20115;-46
2024/03/25 09:24:01;;;;;;;5.72;4.00;;;7.90;99.90;;;;;;5069153;28;20071;-47
2024/03/25 09:26:28;;;;;;;5.65;4.20;;;8.30;99.90;;;;;;5067590;28;20040;-48
2024/03/25 09:28:53;;;;;;;7.25;4.05;;;8.50;99.90;;;;;;5069472;28;20037;-47
2024/03/25 09:31:19;;;;;;;7.07;4.50;;;8.70;99.90;;;;;;5062495;28;20405;-46
2024/03/25 09:33:45;;;;;;;8.23;4.40;;;8.80;99.90;;;;;;5064891;28;20072;-46
2024/03/25 09:36:11;;;;;;;6.78;4.10;;;9.30;99.90;;;;;;5068835;28;20517;-48
2024/03/25 09:38:37;;;;;;;5.47;4.10;;;9.60;99.90;;;;;;5065061;28;20489;-45
2024/03/25 09:41:03;;;;;;;7.97;5.90;;;9.60;99.90;;;;;;5062744;28;20040;-44
2024/03/25 09:43:42;;;;;;;6.75;5.60;;;9.50;99.90;;;;;;5071526;28;20421;-46
2024/03/25 09:46:09;;;;;;;12.85;7.35;;;9.60;99.90;;;;;;5069899;28;20048;-43
2024/03/25 09:48:37;;;;;;;7.57;5.20;;;9.50;99.90;;;;;;5072423;28;20305;-45
2024/03/25 09:51:04;;;;;;;6.57;5.20;;;9.40;99.90;;;;;;5070888;28;20057;-45
2024/03/25 09:53:31;;;;;;;6.20;4.80;;;9.40;99.90;;;;;;5077781;28;20044;-44
2024/03/25 09:55:57;;;;;;;6.50;5.25;;;9.30;99.90;;;;;;5070776;28;20101;-47
2024/03/25 09:58:26;;;;;;;9.00;4.90;;;9.50;99.90;;;;;;5067145;28;20059;-48
2024/03/25 10:00:52;;;;;;;8.55;4.68;;;9.40;99.90;;;;;;5073663;28;20044;-47
2024/03/25 10:03:18;;;;;;;6.75;4.93;;;9.40;99.90;;;;;;5073639;28;20055;-45
2024/03/25 10:05:44;;;;;;;7.82;5.50;;;9.60;99.90;;;;;;5070277;28;20418;-51
2024/03/25 10:08:10;;;;;;;9.27;4.85;;;9.80;99.90;;;;;;5069693;28;20068;-47
2024/03/25 10:10:40;;;;;;;7.47;4.93;;;9.90;99.90;;;;;;5067805;28;20604;-50
2024/03/25 10:13:06;;;;;;;9.45;6.22;;;10.50;99.90;;;;;;5062974;28;20090;-46
2024/03/25 10:15:32;;;;;;;8.77;5.68;;;10.60;99.90;;;;;;5070505;28;20063;-45
2024/03/25 10:17:58;;;;;;;8.75;6.00;;;10.50;99.90;;;;;;5067642;28;20044;-44
2024/03/25 10:20:25;;;;;;;9.63;6.03;;;10.70;99.90;;;;;;5072432;28;20060;-46
2024/03/25 10:22:51;;;;;;;7.60;4.63;;;10.70;99.90;;;;;;5066430;28;20036;-46
2024/03/25 10:25:28;;;;;;;11.05;5.47;;;10.70;99.90;;;;;;5067597;28;20089;-46
2024/03/25 10:27:59;;;;;;;7.72;5.40;;;10.50;99.90;;;;;;5066900;28;20048;-44
2024/03/25 10:30:26;;;;;;;7.72;5.80;;;10.50;99.90;;;;;;5070174;28;20110;-48
2024/03/25 10:33:03;;;;;;;11.20;6.55;;;10.70;99.90;;;;;;5069328;28;20044;-46
2024/03/25 10:35:31;;;;;;;8.05;5.30;;;10.60;99.90;;;;;;5072268;28;20047;-48
2024/03/25 10:38:03;;;;;;;8.98;5.25;;;10.30;99.90;;;;;;5064768;28;20040;-48
2024/03/25 10:40:32;;;;;;;7.90;5.78;;;10.20;99.90;;;;;;5073103;28;20082;-45
2024/03/25 10:43:09;;;;;;;6.57;5.00;;;10.30;99.90;;;;;;5068464;28;20052;-46
2024/03/25 10:45:37;;;;;;;10.88;5.53;;;10.70;99.90;;;;;;5070798;28;20044;-43
2024/03/25 10:48:26;;;;;;;9.73;5.55;;;10.70;99.90;;;;;;5071600;28;20040;-44
2024/03/25 10:50:55;;;;;;;7.22;5.03;;;10.70;99.90;;;;;;5071938;28;20417;-44
2024/03/25 10:53:23;;;;;;;8.30;5.30;;;10.70;99.90;;;;;;5071289;28;20362;-42
2024/03/25 10:55:54;;;;;;;9.45;5.53;;;10.70;99.90;;;;;;5070600;28;20041;-43
2024/03/25 10:58:22;;;;;;;10.77;7.60;;;11.00;99.90;;;;;;5074024;28;20033;-45
2024/03/25 11:00:56;;;;;;;6.78;5.03;;;11.30;99.90;;;;;;5057772;28;20040;-45
2024/03/25 11:03:23;;;;;;;5.70;4.50;;;11.40;99.90;;;;;;5072334;28;20059;-44
2024/03/25 11:05:51;;;;;;;6.13;4.43;;;11.60;99.90;;;;;;5069569;28;20584;-45
2024/03/25 11:08:17;;;;;;;6.00;4.78;;;12.10;99.90;;;;;;5070821;28;20048;-43
2024/03/25 11:10:46;;;;;;;6.35;4.78;;;12.40;99.90;;;;;;5070961;28;20055;-43
2024/03/25 11:13:14;;;;;;;7.63;4.95;;;12.50;99.90;;;;;;5069006;28;20044;-50
2024/03/25 11:15:44;;;;;;;6.55;4.85;;;12.10;99.90;;;;;;5077821;28;20047;-42
2024/03/25 11:18:14;;;;;;;8.47;5.23;;;12.10;99.90;;;;;;5071107;28;20700;-40
2024/03/25 11:20:43;;;;;;;8.15;5.35;;;12.70;99.90;;;;;;5074546;28;20464;-43
2024/03/25 11:23:13;;;;;;;7.03;5.07;;;12.70;99.90;;;;;;5071005;28;20467;-45
2024/03/25 11:25:41;;;;;;;9.00;5.53;;;12.60;99.90;;;;;;5076671;28;20583;-44
2024/03/25 11:28:10;;;;;;;7.20;5.07;;;12.80;99.90;;;;;;5068940;28;20040;-46
2024/03/25 11:30:37;;;;;;;7.30;5.55;;;13.10;99.90;;;;;;5074930;28;20113;-42
2024/03/25 11:33:05;;;;;;;6.63;5.13;;;13.60;99.90;;;;;;5072376;28;20060;-43
2024/03/25 11:35:38;;;;;;;6.32;5.43;;;13.70;99.90;;;;;;5075773;28;20043;-41
2024/03/25 11:38:04;;;;;;;10.05;5.75;;;13.80;99.90;;;;;;5072785;28;20127;-44
2024/03/25 11:40:30;;;;;;;7.10;5.30;;;14.00;99.90;;;;;;5071171;28;20252;-48
2024/03/25 11:42:56;;;;;;;7.47;5.68;;;14.10;99.90;;;;;;5072909;28;20039;-47
2024/03/25 11:45:24;;;;;;;7.10;5.63;;;14.20;99.90;;;;;;5073021;28;20052;-45
2024/03/25 11:47:50;;;;;;;5.75;5.10;;;14.40;99.90;;;;;;5070879;28;20056;-44
2024/03/25 11:50:18;;;;;;;7.15;5.30;;;14.90;99.90;;;;;;5070191;28;20511;-45
2024/03/25 11:52:44;;;;;;;9.90;5.20;;;15.10;99.90;;;;;;5069635;28;20051;-42
2024/03/25 11:55:11;;;;;;;10.60;5.50;;;14.90;99.90;;;;;;5070589;28;20428;-45
2024/03/25 11:57:38;;;;;;;7.20;4.80;;;14.70;98.90;;;;;;5060436;28;20314;-46
2024/03/25 12:00:05;;;;;;;5.65;4.97;;;15.00;97.80;;;;;;5070242;28;20056;-46
2024/03/25 12:02:45;;;;;;;5.85;5.25;;;15.40;97.50;;;;;;5068565;28;20044;-41
2024/03/25 12:05:17;;;;;;;7.32;5.18;;;15.30;97.00;;;;;;5066105;28;20053;-42
2024/03/25 12:07:43;;;;;;;6.10;5.28;;;15.90;94.60;;;;;;5064045;28;20074;-44
2024/03/25 12:12:55;;;;;;;7.75;6.00;;;15.70;91.20;;;;;;5066649;28;20532;-44
2024/03/25 12:15:22;;;;;;;7.20;5.30;;;15.70;89.90;;;;;;5071330;28;20087;-42
2024/03/25 12:17:48;;;;;;;5.40;4.90;;;16.00;90.80;;;;;;5064074;28;20056;-42
2024/03/25 12:20:17;;;;;;;6.78;5.18;;;16.00;90.20;;;;;;5073259;28;20056;-46
2024/03/25 12:22:43;;;;;;;5.30;4.80;;;16.60;88.40;;;;;;5070744;28;20040;-46
2024/03/25 12:25:09;;;;;;;6.43;5.25;;;16.80;83.90;;;;;;5070489;28;20570;-43
2024/03/25 12:27:37;;;;;;;7.03;5.20;;;17.20;81.80;;;;;;5063408;28;20508;-46
2024/03/25 12:30:06;;;;;;;6.15;5.28;;;16.80;80.80;;;;;;5062655;28;20122;-44
2024/03/25 12:32:41;;;;;;;5.45;4.60;;;16.40;78.80;;;;;;5060728;28;20051;-47
2024/03/25 12:35:17;;;;;;;5.38;4.88;;;16.20;80.20;;;;;;5069387;28;20059;-47
2024/03/25 12:37:46;;;;;;;9.23;5.90;;;16.20;80.10;;;;;;5060439;28;20048;-46
2024/03/25 12:40:25;;;;;;;5.80;5.25;;;16.20;81.70;;;;;;5066936;28;20074;-48
2024/03/25 12:42:54;;;;;;;5.57;4.95;;;16.90;76.40;;;;;;5069373;28;20329;-46
2024/03/25 12:45:23;;;;;;;5.15;4.60;;;17.30;84.30;;;;;;5070577;28;20036;-45
2024/03/25 12:47:52;;;;;;;9.05;5.05;;;17.90;77.40;;;;;;5071085;28;20424;-43
2024/03/25 12:50:18;;;;;;;6.68;4.90;;;17.50;75.10;;;;;;5072712;28;20040;-47
2024/03/25 12:52:44;;;;;;;8.52;5.15;;;17.60;73.70;;;;;;5069339;28;20055;-45
2024/03/25 12:55:10;;;;;;;7.57;4.97;;;18.00;70.50;;;;;;5069830;28;20045;-44
2024/03/25 12:57:36;;;;;;;6.68;5.40;;;18.20;69.80;;;;;;5071696;28;20535;-43
2024/03/25 13:00:07;;;;;;;13.07;6.40;;;18.50;68.00;;;;;;5067541;28;20599;-46